• Join FlightAware (Why Join?)
  • Login
  • US Flag 
03:49AM EDT


 

Airport Tracker/Info


-or-


 

Live Flight TrackerFlight Track Log ✈ KAL1331 ✈ 01-Nov-2013 ✈ RKSS / GMP - RKJY / RSU

Flight Track Log - Related Links

Times and Time Zones

All times are in EDT time to prevent confusion due to time zone crossing. See the KAL1331 flight status page for this flight to view local times or setup timezone preferences in your user account.

Time Position Orientation Groundspeed Altitude Reporting Facility
EDT Latitude Longitude Course Direction KTS MPH feet Rate Location/Type
06:19PM 37.2071 126.9005 166° South  Level Estimated
06:19PM 37.5090 126.6570 166° South 276 318 9,300  Level FlightAware
06:20PM 37.1193 126.9279 166° South  Level Estimated
06:20PM 37.4230 126.6750 171° South 341 392 11,700  Level FlightAware
06:21PM 37.3310 126.6940 171° South 357 411 14,900 3,360 Climbing FlightAware
06:22PM 37.2400 126.7140 170° South 379 436 17,700 3,060 Climbing FlightAware
06:22PM 37.1620 126.7310 170° South 391 450 19,800 1,500 Climbing FlightAware
06:23PM 37.0820 126.7480 170° South 403 464 20,000 120 Climbing FlightAware
06:24PM 37.0040 126.7660 170° South 403 464 20,000  Level FlightAware
06:25PM 36.9480 126.7780 170° South 403 464 20,000  Level FlightAware
06:25PM 36.8730 126.7940 170° South 403 464 20,000  Level FlightAware
06:26PM 36.8160 126.8070 170° South 403 464 20,000  Level FlightAware
06:27PM 36.7230 126.8270 170° South 403 464 20,000  Level FlightAware
06:30PM 36.5075 126.9193 161° South  Level Estimated
06:31PM 36.4246 126.9546 161° South  Level Estimated
06:32PM 36.3416 126.9899 161° South  Level Estimated
06:33PM 36.2587 127.0251 161° South  Level Estimated
06:34PM 36.1758 127.0602 161° South  Level Estimated
06:35PM 36.0928 127.0952 161° South  Level Estimated
06:36PM 36.0099 127.1302 161° South  Level Estimated
06:37PM 35.9269 127.1651 161° South  Level Estimated
06:38PM 35.8439 127.1999 161° South  Level Estimated
06:39PM 35.7609 127.2347 161° South  Level Estimated
06:40PM 35.6779 127.2694 161° South  Level Estimated
06:41PM 35.5949 127.3040 161° South  Level Estimated
06:42PM 35.5119 127.3385 161° South  Level Estimated
06:43PM 35.4289 127.3730 161° South  Level Estimated
06:44PM 35.3458 127.4074 161° South  Level Estimated
06:45PM 35.2628 127.4417 161° South  Level Estimated
06:46PM 35.1797 127.4759 161° South  Level Estimated
06:47PM 35.0966 127.5101 161° South  Level Estimated
06:48PM 35.0136 127.5442 161° South  Level Estimated
06:49PM 34.9305 127.5783 161° South  Level Estimated
06:50PM 34.8474 127.6122 161° South  Level Estimated
06:51PM 34.8398 127.6153 161° South  Level Estimated
06:52PM 34.8398 127.6153 180° South  Level Estimated
06:53PM 34.8398 127.6153 180° South  Level Estimated
06:54PM 34.8398 127.6153 180° South  Level Estimated
06:55PM 34.8398 127.6153 180° South  Level Estimated
06:56PM 34.8398 127.6153 180° South  Level Estimated
06:57PM 34.8398 127.6153 180° South  Level Estimated
06:58PM 34.8398 127.6153 180° South  Level Estimated
06:59PM 34.8398 127.6153 180° South  Level Estimated
07:00PM 34.8398 127.6153 180° South  Level Estimated